sensor_id;sensor_type;location;lat;lon;timestamp;pressure;altitude;pressure_sealevel;temperature;humidity
76694;BME280;65625;52.136;5.424;2023-01-29T00:00:10;103125.97;;;2.96;85.19
76694;BME280;65625;52.136;5.424;2023-01-29T00:02:40;103120.66;;;2.93;85.17
76694;BME280;65625;52.136;5.424;2023-01-29T00:05:06;103118.00;;;2.95;85.81
76694;BME280;65625;52.136;5.424;2023-01-29T00:07:54;103120.66;;;2.95;85.72
76694;BME280;65625;52.136;5.424;2023-01-29T00:10:20;103112.69;;;2.92;85.45
76694;BME280;65625;52.136;5.424;2023-01-29T00:12:46;103106.44;;;2.91;85.86
76694;BME280;65625;52.136;5.424;2023-01-29T00:15:13;103105.53;;;2.92;85.25
76694;BME280;65625;52.136;5.424;2023-01-29T00:17:40;103099.34;;;2.92;85.74
76694;BME280;65625;52.136;5.424;2023-01-29T00:20:06;103090.44;;;2.91;85.61
76694;BME280;65625;52.136;5.424;2023-01-29T00:22:33;103080.69;;;2.92;85.76
76694;BME280;65625;52.136;5.424;2023-01-29T00:24:59;103079.78;;;2.91;85.76
76694;BME280;65625;52.136;5.424;2023-01-29T00:27:26;103071.78;;;2.91;85.54
76694;BME280;65625;52.136;5.424;2023-01-29T00:29:52;103072.69;;;2.92;85.65
76694;BME280;65625;52.136;5.424;2023-01-29T00:32:34;103067.34;;;2.92;85.61
76694;BME280;65625;52.136;5.424;2023-01-29T00:35:01;103076.22;;;2.91;85.13
76694;BME280;65625;52.136;5.424;2023-01-29T00:37:28;103078.88;;;2.91;85.79
76694;BME280;65625;52.136;5.424;2023-01-29T00:39:55;103088.66;;;2.93;85.32
76694;BME280;65625;52.136;5.424;2023-01-29T00:42:22;103085.09;;;2.94;85.80
76694;BME280;65625;52.136;5.424;2023-01-29T00:45:10;103084.22;;;2.92;85.77
76694;BME280;65625;52.136;5.424;2023-01-29T00:47:36;103081.53;;;2.92;85.73
76694;BME280;65625;52.136;5.424;2023-01-29T00:50:08;103088.69;;;2.92;85.42
76694;BME280;65625;52.136;5.424;2023-01-29T00:52:35;103075.34;;;2.93;85.80
76694;BME280;65625;52.136;5.424;2023-01-29T00:55:03;103078.00;;;2.93;85.28
76694;BME280;65625;52.136;5.424;2023-01-29T00:57:31;103077.06;;;2.96;85.86
76694;BME280;65625;52.136;5.424;2023-01-29T00:59:59;103072.66;;;2.95;85.79
76694;BME280;65625;52.136;5.424;2023-01-29T01:02:26;103069.09;;;2.93;85.74
76694;BME280;65625;52.136;5.424;2023-01-29T01:05:14;103070.00;;;2.93;85.40
76694;BME280;65625;52.136;5.424;2023-01-29T01:07:45;103066.41;;;2.94;85.72
76694;BME280;65625;52.136;5.424;2023-01-29T01:10:15;103067.31;;;2.96;85.93
76694;BME280;65625;52.136;5.424;2023-01-29T01:12:59;103064.66;;;2.93;85.45
76694;BME280;65625;52.136;5.424;2023-01-29T01:15:30;103059.31;;;2.95;86.13
76694;BME280;65625;52.136;5.424;2023-01-29T01:17:59;103063.75;;;2.94;86.21
76694;BME280;65625;52.136;5.424;2023-01-29T01:20:28;103054.00;;;2.93;85.59
76694;BME280;65625;52.136;5.424;2023-01-29T01:22:56;103047.78;;;2.93;85.98
76694;BME280;65625;52.136;5.424;2023-01-29T01:25:24;103056.66;;;2.93;86.09
76694;BME280;65625;52.136;5.424;2023-01-29T01:27:52;103055.75;;;2.93;85.94
76694;BME280;65625;52.136;5.424;2023-01-29T01:30:19;103053.09;;;2.94;85.78
76694;BME280;65625;52.136;5.424;2023-01-29T01:32:45;103061.09;;;2.94;86.04
76694;BME280;65625;52.136;5.424;2023-01-29T01:35:12;103068.22;;;2.95;86.33
76694;BME280;65625;52.136;5.424;2023-01-29T01:37:40;103067.31;;;2.96;85.86
76694;BME280;65625;52.136;5.424;2023-01-29T01:40:13;103072.66;;;2.95;85.68
76694;BME280;65625;52.136;5.424;2023-01-29T01:42:46;103077.97;;;2.96;86.17
76694;BME280;65625;52.136;5.424;2023-01-29T01:45:28;103074.41;;;2.94;85.72
76694;BME280;65625;52.136;5.424;2023-01-29T01:50:34;103075.31;;;2.96;86.23
76694;BME280;65625;52.136;5.424;2023-01-29T01:53:08;103069.97;;;2.96;86.05
76694;BME280;65625;52.136;5.424;2023-01-29T01:55:39;103065.53;;;2.95;86.23
76694;BME280;65625;52.136;5.424;2023-01-29T01:58:12;103076.22;;;2.95;86.42
76694;BME280;65625;52.136;5.424;2023-01-29T02:00:41;103070.91;;;2.94;85.96
76694;BME280;65625;52.136;5.424;2023-01-29T02:03:08;103074.41;;;2.96;85.73
76694;BME280;65625;52.136;5.424;2023-01-29T02:05:57;103061.97;;;2.95;85.77
76694;BME280;65625;52.136;5.424;2023-01-29T02:08:53;103057.56;;;2.94;85.79
76694;BME280;65625;52.136;5.424;2023-01-29T02:11:39;103065.53;;;2.92;86.29
76694;BME280;65625;52.136;5.424;2023-01-29T02:14:06;103071.78;;;2.93;86.33
76694;BME280;65625;52.136;5.424;2023-01-29T02:16:36;103068.22;;;2.92;85.83
76694;BME280;65625;52.136;5.424;2023-01-29T02:19:25;103064.66;;;2.93;85.99
76694;BME280;65625;52.136;5.424;2023-01-29T02:22:11;103063.78;;;2.93;86.22
76694;BME280;65625;52.136;5.424;2023-01-29T02:25:03;103062.00;;;2.92;86.20
76694;BME280;65625;52.136;5.424;2023-01-29T02:30:34;103070.00;;;2.92;85.87
76694;BME280;65625;52.136;5.424;2023-01-29T02:36:14;103078.88;;;2.92;86.08
76694;BME280;65625;52.136;5.424;2023-01-29T02:38:46;103084.22;;;2.92;85.94
76694;BME280;65625;52.136;5.424;2023-01-29T02:44:19;103085.13;;;2.90;86.84
76694;BME280;65625;52.136;5.424;2023-01-29T02:46:58;103092.22;;;2.92;86.19
76694;BME280;65625;52.136;5.424;2023-01-29T02:49:35;103089.56;;;2.89;85.96
76694;BME280;65625;52.136;5.424;2023-01-29T02:52:20;103087.81;;;2.90;86.36
76694;BME280;65625;52.136;5.424;2023-01-29T02:54:55;103088.69;;;2.90;86.16
76694;BME280;65625;52.136;5.424;2023-01-29T02:57:31;103091.38;;;2.90;86.28
76694;BME280;65625;52.136;5.424;2023-01-29T03:00:10;103090.47;;;2.88;85.96
76694;BME280;65625;52.136;5.424;2023-01-29T03:05:31;103080.69;;;2.90;86.59
76694;BME280;65625;52.136;5.424;2023-01-29T03:08:07;103078.91;;;2.89;86.51
76694;BME280;65625;52.136;5.424;2023-01-29T03:10:39;103078.03;;;2.89;86.19
76694;BME280;65625;52.136;5.424;2023-01-29T03:13:24;103074.47;;;2.88;86.64
76694;BME280;65625;52.136;5.424;2023-01-29T03:15:59;103071.81;;;2.90;86.64
76694;BME280;65625;52.136;5.424;2023-01-29T03:18:38;103065.59;;;2.88;86.60
76694;BME280;65625;52.136;5.424;2023-01-29T03:21:13;103060.28;;;2.86;86.71
76694;BME280;65625;52.136;5.424;2023-01-29T03:24:03;103058.50;;;2.87;86.75
76694;BME280;65625;52.136;5.424;2023-01-29T03:26:49;103058.47;;;2.88;86.47
76694;BME280;65625;52.136;5.424;2023-01-29T03:29:41;103050.50;;;2.85;86.40
76694;BME280;65625;52.136;5.424;2023-01-29T03:32:45;103047.84;;;2.87;86.38
76694;BME280;65625;52.136;5.424;2023-01-29T03:35:16;103038.91;;;2.88;86.91
76694;BME280;65625;52.136;5.424;2023-01-29T03:37:47;103030.94;;;2.86;86.89
76694;BME280;65625;52.136;5.424;2023-01-29T03:40:14;103033.59;;;2.86;86.96
76694;BME280;65625;52.136;5.424;2023-01-29T03:43:11;103028.28;;;2.85;86.54
76694;BME280;65625;52.136;5.424;2023-01-29T03:49:24;103023.84;;;2.87;87.01
76694;BME280;65625;52.136;5.424;2023-01-29T03:51:34;103014.06;;;2.84;87.00
76694;BME280;65625;52.136;5.424;2023-01-29T03:54:24;103024.75;;;2.83;86.79
76694;BME280;65625;52.136;5.424;2023-01-29T03:57:02;103018.50;;;2.82;86.76
76694;BME280;65625;52.136;5.424;2023-01-29T03:59:39;103022.06;;;2.83;87.21
76694;BME280;65625;52.136;5.424;2023-01-29T04:02:48;103008.72;;;2.84;87.35
76694;BME280;65625;52.136;5.424;2023-01-29T04:05:19;103008.72;;;2.86;87.08
76694;BME280;65625;52.136;5.424;2023-01-29T04:08:05;103017.59;;;2.86;86.74
76694;BME280;65625;52.136;5.424;2023-01-29T04:10:33;102997.19;;;2.84;87.25
76694;BME280;65625;52.136;5.424;2023-01-29T04:13:08;102999.84;;;2.85;87.02
76694;BME280;65625;52.136;5.424;2023-01-29T04:15:49;102994.53;;;2.84;86.82
76694;BME280;65625;52.136;5.424;2023-01-29T04:18:30;102996.31;;;2.83;86.76
76694;BME280;65625;52.136;5.424;2023-01-29T04:21:04;103003.41;;;2.84;86.83
76694;BME280;65625;52.136;5.424;2023-01-29T04:23:33;102990.06;;;2.83;86.78
76694;BME280;65625;52.136;5.424;2023-01-29T04:28:54;102989.22;;;2.79;86.34
76694;BME280;65625;52.136;5.424;2023-01-29T04:31:31;102989.25;;;2.76;86.41
76694;BME280;65625;52.136;5.424;2023-01-29T04:34:18;102988.34;;;2.76;86.50
76694;BME280;65625;52.136;5.424;2023-01-29T04:43:03;102984.84;;;2.72;86.23
76694;BME280;65625;52.136;5.424;2023-01-29T04:48:21;102986.63;;;2.72;86.50
76694;BME280;65625;52.136;5.424;2023-01-29T04:51:29;102976.84;;;2.71;86.19
76694;BME280;65625;52.136;5.424;2023-01-29T04:59:13;102967.13;;;2.68;86.43
76694;BME280;65625;52.136;5.424;2023-01-29T05:01:42;102972.44;;;2.68;86.30
76694;BME280;65625;52.136;5.424;2023-01-29T05:04:12;102960.00;;;2.69;86.42
76694;BME280;65625;52.136;5.424;2023-01-29T05:06:40;102960.88;;;2.69;85.71
76694;BME280;65625;52.136;5.424;2023-01-29T05:09:08;102958.25;;;2.66;86.41
76694;BME280;65625;52.136;5.424;2023-01-29T05:11:35;102955.59;;;2.65;85.64
76694;BME280;65625;52.136;5.424;2023-01-29T05:14:05;102962.69;;;2.64;86.08
76694;BME280;65625;52.136;5.424;2023-01-29T05:16:37;102955.59;;;2.63;85.43
76694;BME280;65625;52.136;5.424;2023-01-29T05:19:13;102958.28;;;2.62;85.51
76694;BME280;65625;52.136;5.424;2023-01-29T05:21:42;102963.63;;;2.62;85.60
76694;BME280;65625;52.136;5.424;2023-01-29T05:24:13;102960.06;;;2.61;85.45
76694;BME280;65625;52.136;5.424;2023-01-29T05:26:42;102963.63;;;2.62;86.15
76694;BME280;65625;52.136;5.424;2023-01-29T05:29:28;102965.38;;;2.63;85.48
76694;BME280;65625;52.136;5.424;2023-01-29T05:31:54;102977.81;;;2.62;85.94
76694;BME280;65625;52.136;5.424;2023-01-29T05:34:21;102978.69;;;2.64;86.06
76694;BME280;65625;52.136;5.424;2023-01-29T05:36:47;102976.03;;;2.63;85.83
76694;BME280;65625;52.136;5.424;2023-01-29T05:39:14;102965.41;;;2.59;85.48
76694;BME280;65625;52.136;5.424;2023-01-29T05:41:40;102971.63;;;2.62;85.73
76694;BME280;65625;52.136;5.424;2023-01-29T05:44:08;102967.16;;;2.60;85.72
76694;BME280;65625;52.136;5.424;2023-01-29T05:46:36;102974.31;;;2.60;85.80
76694;BME280;65625;52.136;5.424;2023-01-29T05:49:03;102968.97;;;2.58;85.89
76694;BME280;65625;52.136;5.424;2023-01-29T05:51:30;102976.97;;;2.58;86.08
76694;BME280;65625;52.136;5.424;2023-01-29T05:53:56;102976.06;;;2.59;85.80
76694;BME280;65625;52.136;5.424;2023-01-29T05:56:22;102971.66;;;2.57;85.72
76694;BME280;65625;52.136;5.424;2023-01-29T05:58:50;102967.19;;;2.59;85.61
76694;BME280;65625;52.136;5.424;2023-01-29T06:01:20;102945.88;;;2.57;85.07
76694;BME280;65625;52.136;5.424;2023-01-29T06:03:47;102946.78;;;2.58;85.20
76694;BME280;65625;52.136;5.424;2023-01-29T06:06:14;102947.66;;;2.55;85.09
76694;BME280;65625;52.136;5.424;2023-01-29T06:08:41;102940.56;;;2.56;85.43
76694;BME280;65625;52.136;5.424;2023-01-29T06:11:10;102937.00;;;2.55;85.29
76694;BME280;65625;52.136;5.424;2023-01-29T06:13:37;102932.56;;;2.56;85.40
76694;BME280;65625;52.136;5.424;2023-01-29T06:16:05;102936.13;;;2.55;85.03
76694;BME280;65625;52.136;5.424;2023-01-29T06:18:32;102937.03;;;2.54;84.82
76694;BME280;65625;52.136;5.424;2023-01-29T06:21:03;102938.81;;;2.55;84.78
76694;BME280;65625;52.136;5.424;2023-01-29T06:23:30;102935.25;;;2.54;85.25
76694;BME280;65625;52.136;5.424;2023-01-29T06:26:05;102928.16;;;2.55;85.25
76694;BME280;65625;52.136;5.424;2023-01-29T06:28:32;102927.22;;;2.56;84.91
76694;BME280;65625;52.136;5.424;2023-01-29T06:31:01;102921.91;;;2.56;84.77
76694;BME280;65625;52.136;5.424;2023-01-29T06:33:47;102911.25;;;2.54;84.97
76694;BME280;65625;52.136;5.424;2023-01-29T06:36:14;102922.81;;;2.55;84.97
76694;BME280;65625;52.136;5.424;2023-01-29T06:38:40;102920.13;;;2.56;84.59
76694;BME280;65625;52.136;5.424;2023-01-29T06:41:11;102913.03;;;2.57;84.20
76694;BME280;65625;52.136;5.424;2023-01-29T06:43:38;102920.13;;;2.58;84.19
76694;BME280;65625;52.136;5.424;2023-01-29T06:46:06;102924.53;;;2.59;84.34
76694;BME280;65625;52.136;5.424;2023-01-29T06:48:34;102927.19;;;2.60;84.53
76694;BME280;65625;52.136;5.424;2023-01-29T06:51:05;102936.97;;;2.62;84.65
76694;BME280;65625;52.136;5.424;2023-01-29T06:53:32;102924.50;;;2.62;83.87
76694;BME280;65625;52.136;5.424;2023-01-29T06:55:59;102916.50;;;2.62;84.07
76694;BME280;65625;52.136;5.424;2023-01-29T06:58:26;102917.41;;;2.61;84.20
76694;BME280;65625;52.136;5.424;2023-01-29T07:00:52;102928.06;;;2.63;84.17
76694;BME280;65625;52.136;5.424;2023-01-29T07:03:19;102923.63;;;2.63;84.22
76694;BME280;65625;52.136;5.424;2023-01-29T07:05:50;102914.72;;;2.64;83.86
76694;BME280;65625;52.136;5.424;2023-01-29T07:08:17;102914.69;;;2.66;83.71
76694;BME280;65625;52.136;5.424;2023-01-29T07:10:43;102926.25;;;2.66;83.46
76694;BME280;65625;52.136;5.424;2023-01-29T07:13:10;102924.50;;;2.65;83.40
76694;BME280;65625;52.136;5.424;2023-01-29T07:15:37;102913.84;;;2.65;83.94
76694;BME280;65625;52.136;5.424;2023-01-29T07:18:03;102913.84;;;2.65;84.11
76694;BME280;65625;52.136;5.424;2023-01-29T07:20:41;102913.84;;;2.65;83.41
76694;BME280;65625;52.136;5.424;2023-01-29T07:23:10;102914.69;;;2.66;83.99
76694;BME280;65625;52.136;5.424;2023-01-29T07:25:38;102927.16;;;2.65;83.80
76694;BME280;65625;52.136;5.424;2023-01-29T07:28:05;102921.84;;;2.65;83.96
76694;BME280;65625;52.136;5.424;2023-01-29T07:30:33;102917.38;;;2.64;84.03
76694;BME280;65625;52.136;5.424;2023-01-29T07:33:01;102912.97;;;2.62;83.72
76694;BME280;65625;52.136;5.424;2023-01-29T07:35:28;102922.75;;;2.61;83.29
76694;BME280;65625;52.136;5.424;2023-01-29T07:37:54;102931.63;;;2.63;83.51
76694;BME280;65625;52.136;5.424;2023-01-29T07:40:21;102916.53;;;2.64;83.96
76694;BME280;65625;52.136;5.424;2023-01-29T07:42:47;102916.53;;;2.64;83.55
76694;BME280;65625;52.136;5.424;2023-01-29T07:45:14;102911.16;;;2.62;83.83
76694;BME280;65625;52.136;5.424;2023-01-29T07:47:40;102903.19;;;2.62;83.38
76694;BME280;65625;52.136;5.424;2023-01-29T07:50:07;102900.53;;;2.64;83.63
76694;BME280;65625;52.136;5.424;2023-01-29T07:52:34;102891.59;;;2.66;83.29
76694;BME280;65625;52.136;5.424;2023-01-29T07:55:01;102894.25;;;2.66;83.75
76694;BME280;65625;52.136;5.424;2023-01-29T07:57:27;102888.91;;;2.69;83.38
76694;BME280;65625;52.136;5.424;2023-01-29T07:59:55;102879.13;;;2.70;83.59
76694;BME280;65625;52.136;5.424;2023-01-29T08:02:22;102880.03;;;2.70;83.41
76694;BME280;65625;52.136;5.424;2023-01-29T08:04:48;102880.91;;;2.69;83.01
76694;BME280;65625;52.136;5.424;2023-01-29T08:07:15;102876.47;;;2.70;83.66
76694;BME280;65625;52.136;5.424;2023-01-29T08:09:41;102883.53;;;2.74;83.36
76694;BME280;65625;52.136;5.424;2023-01-29T08:12:08;102879.94;;;2.76;83.52
76694;BME280;65625;52.136;5.424;2023-01-29T08:14:34;102866.59;;;2.76;83.58
76694;BME280;65625;52.136;5.424;2023-01-29T08:17:01;102871.91;;;2.79;83.45
76694;BME280;65625;52.136;5.424;2023-01-29T08:19:27;102875.44;;;2.81;83.34
76694;BME280;65625;52.136;5.424;2023-01-29T08:21:54;102878.09;;;2.83;82.77
76694;BME280;65625;52.136;5.424;2023-01-29T08:24:20;102871.84;;;2.87;82.86
76694;BME280;65625;52.136;5.424;2023-01-29T08:26:47;102870.03;;;2.89;83.23
76694;BME280;65625;52.136;5.424;2023-01-29T08:29:13;102874.44;;;2.91;82.44
76694;BME280;65625;52.136;5.424;2023-01-29T08:31:40;102873.53;;;2.92;82.39
76694;BME280;65625;52.136;5.424;2023-01-29T08:34:06;102866.41;;;2.93;82.85
76694;BME280;65625;52.136;5.424;2023-01-29T08:36:33;102858.38;;;2.96;82.49
76694;BME280;65625;52.136;5.424;2023-01-29T08:39:00;102861.94;;;2.96;81.99
76694;BME280;65625;52.136;5.424;2023-01-29T08:41:26;102844.13;;;2.98;81.80
76694;BME280;65625;52.136;5.424;2023-01-29T08:43:53;102851.19;;;3.01;81.67
76694;BME280;65625;52.136;5.424;2023-01-29T08:46:19;102852.06;;;3.04;81.98
76694;BME280;65625;52.136;5.424;2023-01-29T08:48:46;102849.38;;;3.04;81.79
76694;BME280;65625;52.136;5.424;2023-01-29T08:51:13;102854.69;;;3.09;81.30
76694;BME280;65625;52.136;5.424;2023-01-29T08:53:39;102842.16;;;3.12;81.61
76694;BME280;65625;52.136;5.424;2023-01-29T08:56:06;102851.03;;;3.14;81.45
76694;BME280;65625;52.136;5.424;2023-01-29T08:58:32;102837.66;;;3.17;81.37
76694;BME280;65625;52.136;5.424;2023-01-29T09:01:10;102845.59;;;3.23;81.66
76694;BME280;65625;52.136;5.424;2023-01-29T09:03:37;102844.69;;;3.24;81.20
76694;BME280;65625;52.136;5.424;2023-01-29T09:06:08;102845.59;;;3.23;81.08
76694;BME280;65625;52.136;5.424;2023-01-29T09:08:34;102846.47;;;3.25;80.81
76694;BME280;65625;52.136;5.424;2023-01-29T09:11:01;102844.69;;;3.23;80.83
76694;BME280;65625;52.136;5.424;2023-01-29T09:13:28;102845.53;;;3.28;81.00
76694;BME280;65625;52.136;5.424;2023-01-29T09:15:58;102841.00;;;3.34;81.09
76694;BME280;65625;52.136;5.424;2023-01-29T09:18:25;102840.06;;;3.37;81.30
76694;BME280;65625;52.136;5.424;2023-01-29T09:20:52;102840.06;;;3.38;80.75
76694;BME280;65625;52.136;5.424;2023-01-29T09:23:19;102841.78;;;3.41;81.20
76694;BME280;65625;52.136;5.424;2023-01-29T09:25:46;102839.06;;;3.44;80.12
76694;BME280;65625;52.136;5.424;2023-01-29T09:28:12;102853.25;;;3.47;79.95
76694;BME280;65625;52.136;5.424;2023-01-29T09:30:39;102850.56;;;3.50;79.95
76694;BME280;65625;52.136;5.424;2023-01-29T09:33:06;102845.22;;;3.50;79.48
76694;BME280;65625;52.136;5.424;2023-01-29T09:35:33;102849.66;;;3.51;79.85
76694;BME280;65625;52.136;5.424;2023-01-29T09:38:00;102843.34;;;3.57;80.30
76694;BME280;65625;52.136;5.424;2023-01-29T09:40:32;102847.75;;;3.59;79.92
76694;BME280;65625;52.136;5.424;2023-01-29T09:43:03;102844.13;;;3.65;80.09
76694;BME280;65625;52.136;5.424;2023-01-29T09:45:32;102838.72;;;3.68;79.66
76694;BME280;65625;52.136;5.424;2023-01-29T09:48:01;102844.94;;;3.70;79.52
76694;BME280;65625;52.136;5.424;2023-01-29T09:50:33;102846.69;;;3.71;79.57
76694;BME280;65625;52.136;5.424;2023-01-29T09:53:09;102842.22;;;3.71;79.18
76694;BME280;65625;52.136;5.424;2023-01-29T09:55:45;102837.72;;;3.75;79.11
76694;BME280;65625;52.136;5.424;2023-01-29T09:58:24;102838.59;;;3.77;79.48
76694;BME280;65625;52.136;5.424;2023-01-29T10:01:01;102834.91;;;3.85;79.16
76694;BME280;65625;52.136;5.424;2023-01-29T10:04:05;102836.69;;;3.85;78.63
76694;BME280;65625;52.136;5.424;2023-01-29T10:07:01;102834.91;;;3.85;78.93
76694;BME280;65625;52.136;5.424;2023-01-29T10:09:50;102839.31;;;3.88;78.91
76694;BME280;65625;52.136;5.424;2023-01-29T10:20:48;102823.31;;;3.86;78.92
76694;BME280;65625;52.136;5.424;2023-01-29T10:23:35;102822.38;;;3.87;79.08
76694;BME280;65625;52.136;5.424;2023-01-29T10:26:03;102824.22;;;3.85;79.19
76694;BME280;65625;52.136;5.424;2023-01-29T10:28:43;102823.31;;;3.85;79.07
76694;BME280;65625;52.136;5.424;2023-01-29T10:31:21;102818.88;;;3.85;79.09
76694;BME280;65625;52.136;5.424;2023-01-29T10:33:53;102816.25;;;3.81;79.30
76694;BME280;65625;52.136;5.424;2023-01-29T10:36:38;102802.06;;;3.77;79.20
76694;BME280;65625;52.136;5.424;2023-01-29T10:39:18;102799.38;;;3.80;79.34
76694;BME280;65625;52.136;5.424;2023-01-29T10:41:57;102792.19;;;3.82;79.62
76694;BME280;65625;52.136;5.424;2023-01-29T10:44:36;102783.25;;;3.86;79.35
76694;BME280;65625;52.136;5.424;2023-01-29T10:47:34;102784.91;;;3.94;79.26
76694;BME280;65625;52.136;5.424;2023-01-29T10:50:17;102775.91;;;3.98;78.83
76694;BME280;65625;52.136;5.424;2023-01-29T11:00:53;102760.59;;;4.09;78.58
76694;BME280;65625;52.136;5.424;2023-01-29T11:03:29;102759.69;;;4.10;78.25
76694;BME280;65625;52.136;5.424;2023-01-29T11:06:14;102759.56;;;4.14;79.05
76694;BME280;65625;52.136;5.424;2023-01-29T11:11:40;102758.66;;;4.17;78.74
76694;BME280;65625;52.136;5.424;2023-01-29T11:14:28;102740.03;;;4.11;78.75
76694;BME280;65625;52.136;5.424;2023-01-29T11:16:56;102744.44;;;4.15;78.17
76694;BME280;65625;52.136;5.424;2023-01-29T11:19:41;102740.84;;;4.17;78.63
76694;BME280;65625;52.136;5.424;2023-01-29T11:22:14;102731.94;;;4.17;78.93
76694;BME280;65625;52.136;5.424;2023-01-29T11:24:41;102737.34;;;4.14;78.41
76694;BME280;65625;52.136;5.424;2023-01-29T11:27:21;102734.69;;;4.14;78.50
76694;BME280;65625;52.136;5.424;2023-01-29T11:29:49;102740.03;;;4.14;78.89
76694;BME280;65625;52.136;5.424;2023-01-29T11:35:18;102731.91;;;4.18;78.91
76694;BME280;65625;52.136;5.424;2023-01-29T11:37:45;102733.69;;;4.18;78.99
76694;BME280;65625;52.136;5.424;2023-01-29T11:42:45;102718.44;;;4.23;78.99
76694;BME280;65625;52.136;5.424;2023-01-29T11:47:57;102707.97;;;4.11;79.01
76694;BME280;65625;52.136;5.424;2023-01-29T11:50:27;102711.59;;;4.10;78.85
76694;BME280;65625;52.136;5.424;2023-01-29T11:52:54;102709.75;;;4.12;79.22
76694;BME280;65625;52.136;5.424;2023-01-29T11:55:23;102701.66;;;4.16;79.55
76694;BME280;65625;52.136;5.424;2023-01-29T11:58:01;102703.44;;;4.16;79.51
76694;BME280;65625;52.136;5.424;2023-01-29T12:00:30;102698.13;;;4.14;79.97
76694;BME280;65625;52.136;5.424;2023-01-29T12:03:14;102693.66;;;4.15;79.79
76694;BME280;65625;52.136;5.424;2023-01-29T12:05:53;102689.19;;;4.17;79.65
76694;BME280;65625;52.136;5.424;2023-01-29T12:08:21;102693.66;;;4.15;80.37
76694;BME280;65625;52.136;5.424;2023-01-29T12:10:49;102689.25;;;4.14;80.38
76694;BME280;65625;52.136;5.424;2023-01-29T12:13:25;102681.28;;;4.12;80.54
76694;BME280;65625;52.136;5.424;2023-01-29T12:16:26;102667.91;;;4.11;80.56
76694;BME280;65625;52.136;5.424;2023-01-29T12:19:29;102664.28;;;4.15;81.17
76694;BME280;65625;52.136;5.424;2023-01-29T12:22:05;102655.34;;;4.16;81.05
76694;BME280;65625;52.136;5.424;2023-01-29T12:24:35;102650.91;;;4.15;81.17
76694;BME280;65625;52.136;5.424;2023-01-29T12:27:20;102645.56;;;4.15;81.21
76694;BME280;65625;52.136;5.424;2023-01-29T12:30:11;102639.22;;;4.20;81.63
76694;BME280;65625;52.136;5.424;2023-01-29T12:32:48;102635.66;;;4.20;80.63
76694;BME280;65625;52.136;5.424;2023-01-29T12:38:09;102624.09;;;4.19;81.26
76694;BME280;65625;52.136;5.424;2023-01-29T12:40:43;102627.63;;;4.21;81.52
76694;BME280;65625;52.136;5.424;2023-01-29T12:43:15;102623.16;;;4.22;81.22
76694;BME280;65625;52.136;5.424;2023-01-29T12:45:45;102602.69;;;4.22;80.74
76694;BME280;65625;52.136;5.424;2023-01-29T12:48:19;102605.34;;;4.21;80.85
76694;BME280;65625;52.136;5.424;2023-01-29T12:50:47;102600.03;;;4.19;81.24
76694;BME280;65625;52.136;5.424;2023-01-29T12:53:25;102600.03;;;4.19;81.38
76694;BME280;65625;52.136;5.424;2023-01-29T12:55:58;102585.88;;;4.17;80.91
76694;BME280;65625;52.136;5.424;2023-01-29T12:58:55;102582.25;;;4.18;81.08
76694;BME280;65625;52.136;5.424;2023-01-29T13:01:35;102569.84;;;4.16;81.40
76694;BME280;65625;52.136;5.424;2023-01-29T13:04:13;102555.63;;;4.15;80.99
76694;BME280;65625;52.136;5.424;2023-01-29T13:06:48;102545.78;;;4.17;81.46
76694;BME280;65625;52.136;5.424;2023-01-29T13:09:23;102543.09;;;4.17;81.50
76694;BME280;65625;52.136;5.424;2023-01-29T13:11:59;102538.66;;;4.16;81.42
76694;BME280;65625;52.136;5.424;2023-01-29T13:15:05;102527.94;;;4.18;81.51
76694;BME280;65625;52.136;5.424;2023-01-29T13:17:40;102511.91;;;4.18;81.60
76694;BME280;65625;52.136;5.424;2023-01-29T13:20:18;102504.75;;;4.20;81.39
76694;BME280;65625;52.136;5.424;2023-01-29T13:22:49;102501.03;;;4.27;81.69
76694;BME280;65625;52.136;5.424;2023-01-29T13:25:18;102483.91;;;4.35;81.60
76694;BME280;65625;52.136;5.424;2023-01-29T13:27:46;102483.69;;;4.43;81.45
76694;BME280;65625;52.136;5.424;2023-01-29T13:30:30;102478.09;;;4.53;80.85
76694;BME280;65625;52.136;5.424;2023-01-29T13:32:59;102478.78;;;4.61;80.45
76694;BME280;65625;52.136;5.424;2023-01-29T13:35:41;102474.31;;;4.62;80.82
76694;BME280;65625;52.136;5.424;2023-01-29T13:38:23;102467.06;;;4.67;80.85
76694;BME280;65625;52.136;5.424;2023-01-29T13:40:51;102467.72;;;4.76;79.88
76694;BME280;65625;52.136;5.424;2023-01-29T13:43:21;102470.50;;;4.72;80.45
76694;BME280;65625;52.136;5.424;2023-01-29T13:45:50;102460.72;;;4.71;80.57
76694;BME280;65625;52.136;5.424;2023-01-29T13:48:25;102457.06;;;4.75;81.06
76694;BME280;65625;52.136;5.424;2023-01-29T13:50:54;102462.50;;;4.72;80.64
76694;BME280;65625;52.136;5.424;2023-01-29T13:53:23;102468.72;;;4.71;80.82
76694;BME280;65625;52.136;5.424;2023-01-29T13:55:50;102460.78;;;4.68;80.56
76694;BME280;65625;52.136;5.424;2023-01-29T14:00:59;102460.66;;;4.72;80.25
76694;BME280;65625;52.136;5.424;2023-01-29T14:06:01;102453.53;;;4.73;80.29
76694;BME280;65625;52.136;5.424;2023-01-29T14:11:33;102449.97;;;4.74;80.82
76694;BME280;65625;52.136;5.424;2023-01-29T14:14:00;102450.81;;;4.74;81.12
76694;BME280;65625;52.136;5.424;2023-01-29T14:16:33;102452.59;;;4.75;81.47
76694;BME280;65625;52.136;5.424;2023-01-29T14:19:02;102452.56;;;4.77;80.78
76694;BME280;65625;52.136;5.424;2023-01-29T14:21:32;102440.88;;;4.79;81.27
76694;BME280;65625;52.136;5.424;2023-01-29T14:26:47;102436.34;;;4.83;81.15
76694;BME280;65625;52.136;5.424;2023-01-29T14:29:18;102443.47;;;4.84;81.02
76694;BME280;65625;52.136;5.424;2023-01-29T14:32:08;102448.00;;;4.80;80.91
76694;BME280;65625;52.136;5.424;2023-01-29T14:34:43;102445.28;;;4.82;80.98
76694;BME280;65625;52.136;5.424;2023-01-29T14:39:44;102428.25;;;4.84;81.88
76694;BME280;65625;52.136;5.424;2023-01-29T14:53:05;102415.06;;;4.78;81.46
76694;BME280;65625;52.136;5.424;2023-01-29T14:55:43;102423.97;;;4.77;81.65
76694;BME280;65625;52.136;5.424;2023-01-29T14:58:14;102409.84;;;4.74;81.66